Time;durP1;ratioP1;P1;durP2;ratioP2;P2;SDS_P1;SDS_P2;PMS_P1;PMS_P2;Temp;Humidity;BMP_temperature;BMP_pressure;BME280_temperature;BME280_humidity;BME280_pressure;Samples;Min_cycle;Max_cycle;Signal;HPM_P1;HPM_P2
2023/10/05 00:03:15;;;;;;;28.60;13.13;;;6.90;99.90;;;;;;5064095;28;20579;-66
2023/10/05 00:06:13;;;;;;;28.10;13.83;;;6.90;99.90;;;;;;5050476;28;20688;-66
2023/10/05 00:09:05;;;;;;;27.83;13.60;;;6.90;99.90;;;;;;5063822;28;20694;-66
2023/10/05 00:11:54;;;;;;;28.87;14.57;;;6.90;99.90;;;;;;5060451;28;20208;-66
2023/10/05 00:14:42;;;;;;;33.57;14.83;;;6.90;99.90;;;;;;5066389;28;20677;-67
2023/10/05 00:17:31;;;;;;;30.67;15.30;;;6.90;99.90;;;;;;5068245;28;21841;-66
2023/10/05 00:20:24;;;;;;;27.27;15.17;;;6.90;99.90;;;;;;5055058;28;20197;-66
2023/10/05 00:23:12;;;;;;;29.37;15.43;;;6.90;99.90;;;;;;5054598;28;20193;-66
2023/10/05 00:26:01;;;;;;;29.23;15.40;;;6.90;99.90;;;;;;5063942;28;20196;-66
2023/10/05 00:29:04;;;;;;;25.07;14.80;;;6.90;99.90;;;;;;5065574;28;20280;-66
2023/10/05 00:31:51;;;;;;;29.80;15.10;;;6.90;99.90;;;;;;5067795;28;20416;-66
2023/10/05 00:34:40;;;;;;;27.67;13.63;;;6.90;99.90;;;;;;5066700;28;20208;-66
2023/10/05 00:37:28;;;;;;;23.70;13.13;;;6.90;99.90;;;;;;5062854;28;21038;-66
2023/10/05 00:40:27;;;;;;;22.77;13.00;;;6.80;99.90;;;;;;5061674;28;20722;-66
2023/10/05 00:43:23;;;;;;;26.83;13.70;;;6.80;99.90;;;;;;5064223;28;20354;-66
2023/10/05 00:46:11;;;;;;;25.10;12.63;;;6.80;99.90;;;;;;5064617;28;20215;-65
2023/10/05 00:49:04;;;;;;;26.73;13.00;;;6.90;99.90;;;;;;5058664;28;20212;-66
2023/10/05 00:52:00;;;;;;;21.60;12.53;;;6.80;99.90;;;;;;5055960;28;20228;-66
2023/10/05 00:54:48;;;;;;;25.17;11.97;;;6.90;99.90;;;;;;5055643;28;20521;-66
2023/10/05 00:57:36;;;;;;;19.40;11.87;;;6.90;99.90;;;;;;5057592;28;20216;-66
2023/10/05 01:00:27;;;;;;;22.47;11.47;;;6.90;99.90;;;;;;5060517;28;20227;-66
2023/10/05 01:03:22;;;;;;;20.17;10.33;;;6.90;99.90;;;;;;5058912;28;20203;-66
2023/10/05 01:06:13;;;;;;;24.43;10.20;;;7.00;99.90;;;;;;5055786;28;20243;-66
2023/10/05 01:09:04;;;;;;;20.57;10.60;;;7.00;99.90;;;;;;5068564;28;20280;-66
2023/10/05 01:11:54;;;;;;;19.03;10.77;;;6.90;99.90;;;;;;5054956;28;20699;-66
2023/10/05 01:14:45;;;;;;;22.80;11.40;;;6.90;99.90;;;;;;5068870;28;20713;-66
2023/10/05 01:17:35;;;;;;;23.30;11.03;;;6.90;99.90;;;;;;5062039;28;20226;-66
2023/10/05 01:20:25;;;;;;;21.80;10.73;;;6.90;99.90;;;;;;5057875;28;20211;-66
2023/10/05 01:23:15;;;;;;;23.70;10.87;;;7.00;99.90;;;;;;5058272;28;20283;-66
2023/10/05 01:26:03;;;;;;;25.43;11.67;;;7.00;99.90;;;;;;5065922;28;20213;-66
2023/10/05 01:28:50;;;;;;;23.70;11.97;;;7.00;99.90;;;;;;5065111;28;20204;-66
2023/10/05 01:31:39;;;;;;;25.27;12.80;;;7.00;99.90;;;;;;5062301;28;20200;-66
2023/10/05 01:34:26;;;;;;;30.07;13.20;;;7.00;99.90;;;;;;5059226;28;20675;-66
2023/10/05 01:37:13;;;;;;;26.00;13.13;;;7.00;99.90;;;;;;5060818;28;20208;-66
2023/10/05 01:40:11;;;;;;;25.10;12.67;;;7.00;99.90;;;;;;5062786;28;20204;-66
2023/10/05 01:42:59;;;;;;;28.20;13.23;;;7.00;99.90;;;;;;5063512;28;20673;-66
2023/10/05 01:45:48;;;;;;;26.00;14.40;;;7.00;99.90;;;;;;5061785;28;20204;-66
2023/10/05 01:48:35;;;;;;;25.23;14.30;;;7.00;99.90;;;;;;5063467;28;20189;-66
2023/10/05 01:51:23;;;;;;;24.63;13.93;;;7.00;99.90;;;;;;5066017;28;20659;-66
2023/10/05 01:54:12;;;;;;;23.60;12.00;;;7.00;99.90;;;;;;5060748;28;20213;-66
2023/10/05 01:57:03;;;;;;;25.47;11.80;;;7.00;99.90;;;;;;5059568;28;20207;-66
2023/10/05 01:59:51;;;;;;;23.57;11.90;;;7.10;99.90;;;;;;5063543;28;20337;-66
2023/10/05 02:02:38;;;;;;;23.80;12.43;;;7.10;99.90;;;;;;5059882;28;20211;-65
2023/10/05 02:05:25;;;;;;;22.37;11.77;;;7.00;99.90;;;;;;5057663;28;20620;-66
2023/10/05 02:08:14;;;;;;;23.47;12.70;;;7.00;99.90;;;;;;5059750;28;20209;-66
2023/10/05 02:11:04;;;;;;;22.53;12.20;;;7.00;99.90;;;;;;5064118;28;20192;-66
2023/10/05 02:13:52;;;;;;;25.40;12.10;;;7.00;99.90;;;;;;5065491;28;20802;-66
2023/10/05 02:16:40;;;;;;;28.03;12.03;;;7.00;99.90;;;;;;5058887;28;20264;-66
2023/10/05 02:19:28;;;;;;;20.40;10.27;;;7.00;99.90;;;;;;5059599;28;20582;-66
2023/10/05 02:22:16;;;;;;;22.00;11.33;;;7.00;99.90;;;;;;5064549;28;20203;-66
2023/10/05 02:25:07;;;;;;;16.47;10.70;;;6.90;99.90;;;;;;5057325;28;20232;-66
2023/10/05 02:27:55;;;;;;;20.97;11.73;;;6.90;99.90;;;;;;5061399;28;20208;-66
2023/10/05 02:30:44;;;;;;;18.40;10.63;;;7.00;99.90;;;;;;5063853;28;20200;-66
2023/10/05 02:33:32;;;;;;;22.57;10.13;;;7.00;99.90;;;;;;5064700;28;20670;-66
2023/10/05 02:36:21;;;;;;;20.97;9.90;;;7.00;99.90;;;;;;5060104;28;20209;-66
2023/10/05 02:39:08;;;;;;;17.13;8.40;;;7.00;99.90;;;;;;5058346;28;20197;-66
2023/10/05 02:41:56;;;;;;;15.53;9.30;;;7.00;99.90;;;;;;5060613;28;20265;-66
2023/10/05 02:44:44;;;;;;;18.20;8.77;;;7.00;99.90;;;;;;5067989;28;20357;-66
2023/10/05 02:47:34;;;;;;;18.93;9.17;;;7.10;99.90;;;;;;5065103;28;20204;-66
2023/10/05 02:50:21;;;;;;;14.80;8.30;;;7.10;99.90;;;;;;5065413;28;20200;-66
2023/10/05 02:53:09;;;;;;;15.43;8.40;;;7.10;99.90;;;;;;5067363;28;20224;-66
2023/10/05 02:55:57;;;;;;;14.00;8.03;;;7.10;99.90;;;;;;5067820;28;20200;-66
2023/10/05 02:58:44;;;;;;;16.93;7.90;;;7.10;99.90;;;;;;5059555;28;20216;-66
2023/10/05 03:01:33;;;;;;;16.27;8.27;;;7.10;99.90;;;;;;5061141;28;20193;-66
2023/10/05 03:04:22;;;;;;;16.73;8.30;;;7.20;99.90;;;;;;5063786;28;20252;-66
2023/10/05 03:07:10;;;;;;;14.83;8.13;;;7.20;99.90;;;;;;5061750;28;20279;-66
2023/10/05 03:09:59;;;;;;;18.00;7.97;;;7.20;99.90;;;;;;5060155;28;20231;-66
2023/10/05 03:12:46;;;;;;;15.83;8.03;;;7.20;99.90;;;;;;5057917;28;20209;-66
2023/10/05 03:15:37;;;;;;;16.73;8.07;;;7.20;99.90;;;;;;5058298;28;20285;-66
2023/10/05 03:18:25;;;;;;;15.93;7.47;;;7.20;99.90;;;;;;5057277;28;20224;-66
2023/10/05 03:21:17;;;;;;;16.47;7.73;;;7.20;99.90;;;;;;5054340;28;20193;-66
2023/10/05 03:24:05;;;;;;;16.93;7.87;;;7.20;99.90;;;;;;5057960;28;20239;-66
2023/10/05 03:26:52;;;;;;;16.80;7.27;;;7.20;99.90;;;;;;5058829;28;20216;-66
2023/10/05 03:29:39;;;;;;;13.00;7.53;;;7.20;99.90;;;;;;5054601;28;20572;-66
2023/10/05 03:32:28;;;;;;;19.93;8.13;;;7.20;99.90;;;;;;5056821;28;20263;-66
2023/10/05 03:35:22;;;;;;;14.40;7.33;;;7.20;99.90;;;;;;5057031;28;20216;-66
2023/10/05 03:38:12;;;;;;;16.27;6.70;;;7.20;99.90;;;;;;5059211;28;20219;-66
2023/10/05 03:41:04;;;;;;;15.73;6.53;;;7.10;99.90;;;;;;5063918;28;20213;-66
2023/10/05 03:43:51;;;;;;;15.90;6.90;;;7.10;99.90;;;;;;5052250;28;20212;-66
2023/10/05 03:46:39;;;;;;;17.37;6.03;;;7.10;99.90;;;;;;5064265;28;20197;-66
2023/10/05 03:49:26;;;;;;;13.40;6.00;;;7.20;99.90;;;;;;5062744;28;20209;-67
2023/10/05 03:52:14;;;;;;;12.07;6.10;;;7.20;99.90;;;;;;5063337;28;20618;-66
2023/10/05 03:55:05;;;;;;;11.60;5.87;;;7.10;99.90;;;;;;5058725;28;20201;-66
2023/10/05 03:57:52;;;;;;;12.50;5.50;;;7.00;99.90;;;;;;5065851;28;20687;-66
2023/10/05 04:00:41;;;;;;;11.80;5.03;;;7.00;99.90;;;;;;5055023;28;20211;-66
2023/10/05 04:03:30;;;;;;;13.30;4.93;;;6.90;99.90;;;;;;5054175;28;20681;-66
2023/10/05 04:06:18;;;;;;;15.83;5.00;;;6.80;99.90;;;;;;5059458;28;20722;-66
2023/10/05 04:09:06;;;;;;;11.03;4.80;;;6.80;99.90;;;;;;5059366;28;20321;-66
2023/10/05 04:11:55;;;;;;;13.53;5.03;;;6.70;99.90;;;;;;5061291;28;20205;-66
2023/10/05 04:14:43;;;;;;;9.43;4.40;;;6.70;99.90;;;;;;5059144;28;20203;-66
2023/10/05 04:17:30;;;;;;;10.93;4.57;;;6.60;99.90;;;;;;5058185;28;20216;-66
2023/10/05 04:20:27;;;;;;;14.13;4.40;;;6.60;99.90;;;;;;5053131;28;20290;-67
2023/10/05 04:23:15;;;;;;;6.57;4.20;;;6.60;99.90;;;;;;5057503;28;20219;-66
2023/10/05 04:26:03;;;;;;;11.73;4.57;;;6.50;99.90;;;;;;5053602;28;20335;-66
2023/10/05 04:28:57;;;;;;;10.47;4.17;;;6.50;99.90;;;;;;5055665;28;20215;-66
2023/10/05 04:31:48;;;;;;;8.83;4.13;;;6.40;99.90;;;;;;5050897;28;20587;-66
2023/10/05 04:34:35;;;;;;;11.23;4.13;;;6.40;99.90;;;;;;5047588;28;20322;-67
2023/10/05 04:37:25;;;;;;;11.00;4.47;;;6.30;99.90;;;;;;5055717;28;20215;-66
2023/10/05 04:40:17;;;;;;;9.37;4.63;;;6.30;99.90;;;;;;5056864;28;20216;-66
2023/10/05 04:43:05;;;;;;;7.60;4.20;;;6.30;99.90;;;;;;5055107;28;20259;-66
2023/10/05 04:45:54;;;;;;;12.33;6.00;;;6.20;99.90;;;;;;5051227;28;20208;-66
2023/10/05 04:48:48;;;;;;;11.50;6.00;;;6.20;99.90;;;;;;5054109;28;20204;-66
2023/10/05 04:51:38;;;;;;;11.47;5.60;;;6.20;99.90;;;;;;5053392;28;20342;-67
2023/10/05 04:54:26;;;;;;;13.53;4.67;;;6.10;99.90;;;;;;5058029;28;20333;-66
2023/10/05 04:57:23;;;;;;;10.30;5.23;;;6.10;99.90;;;;;;5060057;28;20288;-66
2023/10/05 05:03:48;;;;;;;9.43;4.97;;;6.10;99.90;;;;;;5051955;28;20219;-66
2023/10/05 05:06:35;;;;;;;11.50;5.00;;;6.00;99.90;;;;;;5059601;28;20227;-66
2023/10/05 05:09:24;;;;;;;10.07;4.80;;;6.00;99.90;;;;;;5063114;28;20765;-66
2023/10/05 05:12:16;;;;;;;14.03;5.07;;;6.00;99.90;;;;;;5062743;28;20219;-66
2023/10/05 05:15:05;;;;;;;8.00;4.60;;;6.00;99.90;;;;;;5047677;28;20261;-66
2023/10/05 05:17:52;;;;;;;8.83;4.70;;;6.10;99.90;;;;;;5057624;28;20269;-66
2023/10/05 05:20:40;;;;;;;10.97;4.70;;;6.10;99.90;;;;;;5060078;28;20661;-66
2023/10/05 05:23:29;;;;;;;8.33;4.63;;;6.10;99.90;;;;;;5058766;28;20204;-66
2023/10/05 05:26:16;;;;;;;11.87;4.97;;;6.10;99.90;;;;;;5058020;28;20203;-66
2023/10/05 05:29:04;;;;;;;11.17;5.03;;;6.10;99.90;;;;;;5056956;28;20201;-66
2023/10/05 05:31:52;;;;;;;11.00;4.80;;;6.10;99.90;;;;;;5054789;28;20276;-67
2023/10/05 05:34:41;;;;;;;13.17;4.17;;;6.20;99.90;;;;;;5051586;28;20197;-66
2023/10/05 05:37:29;;;;;;;8.33;4.77;;;6.20;99.90;;;;;;5060240;28;20207;-66
2023/10/05 05:40:18;;;;;;;8.37;4.40;;;6.30;99.90;;;;;;5059269;28;20204;-66
2023/10/05 05:43:09;;;;;;;10.17;5.23;;;6.40;99.90;;;;;;5061253;28;21047;-66
2023/10/05 05:45:58;;;;;;;10.87;5.10;;;6.50;99.90;;;;;;5054659;28;20717;-66
2023/10/05 05:48:48;;;;;;;10.50;5.00;;;6.60;99.90;;;;;;5060737;28;20211;-66
2023/10/05 05:51:35;;;;;;;13.27;5.30;;;6.80;99.90;;;;;;5058675;28;20235;-66
2023/10/05 05:54:24;;;;;;;17.93;5.10;;;6.90;99.90;;;;;;5062181;28;20200;-66
2023/10/05 05:57:11;;;;;;;9.83;5.70;;;7.00;99.90;;;;;;5049767;28;20218;-66
2023/10/05 06:00:10;;;;;;;9.97;5.50;;;7.20;99.90;;;;;;5049446;28;20208;-66
2023/10/05 06:02:58;;;;;;;15.60;6.20;;;7.30;99.90;;;;;;5062430;28;20200;-66
2023/10/05 06:05:48;;;;;;;11.83;5.97;;;7.50;99.90;;;;;;5050943;28;20714;-67
2023/10/05 06:08:36;;;;;;;12.57;6.17;;;7.70;99.90;;;;;;5050318;28;20224;-66
2023/10/05 06:11:24;;;;;;;10.73;5.53;;;8.00;99.90;;;;;;5048897;28;20743;-66
2023/10/05 06:14:11;;;;;;;11.07;6.23;;;8.20;99.90;;;;;;5043308;28;20210;-66
2023/10/05 06:16:59;;;;;;;11.67;5.17;;;8.40;99.90;;;;;;5041199;28;20653;-66
2023/10/05 06:19:47;;;;;;;15.47;7.30;;;8.60;99.90;;;;;;5044531;28;20229;-67
2023/10/05 06:22:35;;;;;;;17.13;6.53;;;8.90;99.90;;;;;;5051879;28;20548;-66
2023/10/05 06:25:23;;;;;;;21.40;8.07;;;9.10;99.90;;;;;;5046061;28;20201;-66
2023/10/05 06:28:12;;;;;;;14.00;6.20;;;9.40;99.90;;;;;;5046452;28;20243;-67
2023/10/05 06:31:01;;;;;;;18.00;6.53;;;9.50;99.90;;;;;;5048241;28;20202;-66
2023/10/05 06:33:48;;;;;;;10.63;5.63;;;9.70;99.90;;;;;;5049679;28;20997;-67
2023/10/05 06:36:35;;;;;;;13.90;5.50;;;9.80;99.90;;;;;;5048836;28;20288;-66
2023/10/05 06:39:27;;;;;;;10.77;4.97;;;10.00;99.90;;;;;;5041485;28;20227;-67
2023/10/05 06:42:17;;;;;;;9.67;4.63;;;10.10;99.90;;;;;;5044056;28;20217;-66
2023/10/05 06:45:07;;;;;;;6.77;4.20;;;10.40;99.90;;;;;;5049096;28;20204;-67
2023/10/05 06:47:55;;;;;;;10.10;4.90;;;10.60;99.90;;;;;;5048535;28;20200;-66
2023/10/05 06:50:43;;;;;;;12.07;4.43;;;10.80;99.90;;;;;;5048992;28;20245;-66
2023/10/05 06:53:30;;;;;;;10.40;4.70;;;11.10;99.90;;;;;;5048065;28;20374;-66
2023/10/05 06:56:18;;;;;;;10.27;4.50;;;11.10;99.90;;;;;;5047967;28;20229;-67
2023/10/05 06:59:07;;;;;;;9.10;4.17;;;11.30;99.90;;;;;;5041760;28;20224;-66
2023/10/05 07:01:56;;;;;;;15.97;4.90;;;11.60;99.90;;;;;;5048805;28;20201;-66
2023/10/05 07:04:44;;;;;;;11.53;4.87;;;11.60;99.90;;;;;;5040291;28;20205;-65
2023/10/05 07:07:32;;;;;;;13.53;5.00;;;11.50;99.90;;;;;;5056818;28;20229;-66
2023/10/05 07:10:19;;;;;;;16.43;6.20;;;11.60;99.90;;;;;;5056279;28;20186;-66
2023/10/05 07:13:08;;;;;;;12.00;6.07;;;11.80;99.90;;;;;;5059960;28;20203;-66
2023/10/05 07:15:56;;;;;;;11.60;5.23;;;11.90;99.90;;;;;;5053654;28;20204;-66
2023/10/05 07:18:45;;;;;;;9.97;5.70;;;11.90;99.90;;;;;;5061819;28;20259;-66
2023/10/05 07:21:33;;;;;;;14.80;5.67;;;12.00;99.90;;;;;;5062779;28;20213;-65
2023/10/05 07:24:22;;;;;;;12.23;5.60;;;12.10;99.90;;;;;;5061424;28;20199;-66
2023/10/05 07:27:09;;;;;;;8.93;4.63;;;12.10;99.90;;;;;;5056590;28;20275;-66
2023/10/05 07:29:56;;;;;;;11.87;4.83;;;12.20;99.90;;;;;;5054171;28;20197;-66
2023/10/05 07:32:43;;;;;;;11.17;4.60;;;12.10;99.90;;;;;;5059866;28;20217;-66
2023/10/05 07:35:32;;;;;;;10.67;4.50;;;12.20;99.90;;;;;;5059603;28;20534;-66
2023/10/05 07:38:20;;;;;;;10.13;4.10;;;12.50;99.90;;;;;;5057584;28;20312;-65
2023/10/05 07:41:07;;;;;;;8.80;3.90;;;12.60;99.90;;;;;;5061888;28;20198;-65
2023/10/05 07:43:54;;;;;;;7.37;3.27;;;12.70;99.90;;;;;;5059820;28;20241;-66
2023/10/05 07:46:43;;;;;;;8.07;3.33;;;12.60;99.90;;;;;;5061778;28;20968;-66
2023/10/05 07:49:30;;;;;;;7.60;3.20;;;12.60;99.90;;;;;;5051432;28;20211;-66
2023/10/05 07:52:19;;;;;;;10.27;3.80;;;12.70;99.90;;;;;;5061030;28;20250;-66
2023/10/05 07:55:08;;;;;;;9.20;3.33;;;12.70;99.90;;;;;;5051856;28;20208;-66
2023/10/05 07:57:55;;;;;;;7.50;3.70;;;12.70;99.90;;;;;;5054494;28;20202;-66
2023/10/05 08:00:42;;;;;;;12.00;3.90;;;12.60;99.90;;;;;;5056162;28;20336;-66
2023/10/05 08:03:29;;;;;;;7.70;3.87;;;12.70;99.90;;;;;;5058944;28;20209;-66
2023/10/05 08:06:17;;;;;;;10.57;3.97;;;12.60;99.90;;;;;;5061833;28;20240;-65
2023/10/05 08:09:06;;;;;;;11.67;4.30;;;12.50;99.90;;;;;;5053434;28;20193;-65
2023/10/05 08:11:53;;;;;;;9.23;4.10;;;12.80;99.90;;;;;;5055895;28;20820;-65
2023/10/05 08:14:40;;;;;;;11.13;4.60;;;12.80;99.90;;;;;;5061261;28;20194;-66
2023/10/05 08:17:27;;;;;;;12.53;3.73;;;12.70;99.90;;;;;;5055042;28;20207;-66
2023/10/05 08:20:17;;;;;;;7.83;4.23;;;13.20;99.90;;;;;;5055074;28;20245;-66
2023/10/05 08:23:06;;;;;;;8.03;3.50;;;13.40;99.90;;;;;;5056565;28;20207;-66
2023/10/05 08:25:57;;;;;;;8.30;3.90;;;13.70;99.90;;;;;;5047219;28;20239;-66
2023/10/05 08:28:48;;;;;;;10.40;4.17;;;13.40;99.90;;;;;;5057583;28;20204;-65
2023/10/05 08:31:36;;;;;;;4.50;2.60;;;13.50;99.90;;;;;;5057570;28;20208;-65
2023/10/05 08:34:23;;;;;;;13.73;3.70;;;13.90;99.90;;;;;;5061622;28;21030;-66
2023/10/05 08:37:11;;;;;;;8.73;3.30;;;14.10;99.90;;;;;;5057511;28;20212;-66
2023/10/05 08:39:59;;;;;;;10.40;3.20;;;14.40;99.90;;;;;;5063863;28;20237;-66
2023/10/05 08:42:48;;;;;;;8.80;3.50;;;14.60;99.90;;;;;;5053883;28;20768;-65
2023/10/05 08:45:46;;;;;;;7.37;2.97;;;14.60;99.90;;;;;;5060120;28;20214;-65
2023/10/05 08:48:35;;;;;;;7.60;3.13;;;14.60;99.90;;;;;;5057449;28;20858;-66
2023/10/05 08:51:24;;;;;;;9.10;3.50;;;14.70;99.90;;;;;;5056660;28;20205;-66
2023/10/05 08:54:13;;;;;;;9.67;2.70;;;14.90;99.90;;;;;;5059883;28;20207;-65
2023/10/05 08:57:09;;;;;;;6.37;2.70;;;15.00;99.90;;;;;;5057531;28;20739;-65
2023/10/05 08:59:57;;;;;;;8.07;3.00;;;15.10;99.90;;;;;;5060378;28;20322;-66
2023/10/05 09:02:46;;;;;;;6.67;2.30;;;15.50;99.90;;;;;;5049650;28;20716;-65
2023/10/05 09:05:34;;;;;;;9.07;2.80;;;15.90;99.90;;;;;;5061409;28;20248;-66
2023/10/05 09:08:21;;;;;;;9.07;2.60;;;15.80;99.90;;;;;;5061943;28;20308;-66
2023/10/05 09:11:09;;;;;;;11.27;3.63;;;16.00;99.90;;;;;;5064044;28;20569;-66
2023/10/05 09:14:08;;;;;;;5.93;2.40;;;16.00;99.90;;;;;;5065133;28;20240;-66
2023/10/05 09:17:07;;;;;;;10.73;2.27;;;15.60;99.90;;;;;;5067144;28;20203;-65
2023/10/05 09:19:55;;;;;;;5.53;2.00;;;16.00;99.90;;;;;;5060696;28;20307;-66
2023/10/05 09:22:48;;;;;;;5.47;1.47;;;16.30;99.90;;;;;;5068455;28;20208;-65
2023/10/05 09:25:36;;;;;;;3.87;2.10;;;16.40;99.90;;;;;;5063152;28;20200;-65
2023/10/05 09:28:36;;;;;;;5.03;1.57;;;16.30;99.90;;;;;;5061706;28;20209;-66
2023/10/05 09:31:41;;;;;;;4.47;1.97;;;16.40;99.90;;;;;;5059933;28;20882;-65
2023/10/05 09:34:41;;;;;;;6.57;2.00;;;16.40;99.90;;;;;;5070222;28;20204;-66
2023/10/05 09:37:29;;;;;;;6.77;1.30;;;16.50;99.90;;;;;;5059833;28;21049;-65
2023/10/05 09:40:17;;;;;;;6.60;1.80;;;16.90;99.90;;;;;;5064355;28;20229;-65
2023/10/05 09:43:05;;;;;;;3.63;1.50;;;17.10;99.90;;;;;;5066760;28;20283;-65
2023/10/05 09:45:53;;;;;;;7.17;2.00;;;16.50;99.90;;;;;;5063423;28;20208;-65
2023/10/05 09:48:40;;;;;;;8.13;2.77;;;16.40;99.90;;;;;;5068605;28;20301;-66
2023/10/05 09:51:29;;;;;;;5.83;1.80;;;16.70;99.90;;;;;;5064937;28;20362;-66
2023/10/05 09:54:16;;;;;;;5.13;2.07;;;16.70;99.90;;;;;;5067233;28;20213;-66
2023/10/05 09:57:10;;;;;;;4.23;1.60;;;17.50;99.90;;;;;;5073974;28;20954;-66
2023/10/05 10:00:00;;;;;;;4.00;1.90;;;17.40;99.90;;;;;;5073751;28;20699;-65
2023/10/05 10:02:48;;;;;;;8.43;1.90;;;17.60;99.90;;;;;;5069845;28;20233;-65
2023/10/05 10:05:36;;;;;;;3.50;1.23;;;17.50;99.90;;;;;;5066430;28;20229;-65
2023/10/05 10:08:27;;;;;;;6.43;1.60;;;17.50;99.90;;;;;;5060192;28;20261;-65
2023/10/05 10:11:19;;;;;;;1.97;0.83;;;17.00;99.90;;;;;;5058251;28;20201;-64
2023/10/05 10:14:09;;;;;;;3.10;1.30;;;16.70;99.90;;;;;;5064582;28;20333;-65
2023/10/05 10:17:00;;;;;;;4.60;1.83;;;16.80;99.90;;;;;;5057996;28;20193;-65
2023/10/05 10:19:55;;;;;;;6.00;1.80;;;16.70;99.90;;;;;;5065196;28;20256;-65
2023/10/05 10:22:53;;;;;;;4.63;1.83;;;16.70;99.90;;;;;;5059526;28;20215;-65
2023/10/05 10:25:41;;;;;;;5.33;1.80;;;17.00;99.90;;;;;;5056739;28;20299;-65
2023/10/05 10:28:39;;;;;;;4.03;1.80;;;16.90;99.90;;;;;;5060465;28;20270;-66
2023/10/05 10:31:31;;;;;;;5.67;1.90;;;16.80;99.90;;;;;;5062049;28;20201;-66
2023/10/05 10:34:31;;;;;;;3.83;1.83;;;16.70;99.90;;;;;;5059682;28;20224;-65
2023/10/05 10:37:38;;;;;;;7.60;2.40;;;16.70;99.90;;;;;;5060707;28;20634;-65
2023/10/05 10:40:27;;;;;;;3.77;1.90;;;17.10;99.90;;;;;;5053236;28;20228;-65
2023/10/05 10:43:20;;;;;;;5.83;1.97;;;17.30;99.90;;;;;;5056551;28;20212;-65
2023/10/05 10:46:13;;;;;;;7.67;1.83;;;17.30;99.90;;;;;;5055586;28;20254;-65
2023/10/05 10:49:00;;;;;;;4.83;1.70;;;17.30;99.90;;;;;;5055774;28;20367;-65
2023/10/05 10:51:48;;;;;;;3.80;1.83;;;17.50;99.90;;;;;;5057684;28;20271;-65
2023/10/05 10:54:37;;;;;;;3.73;1.67;;;17.50;99.90;;;;;;5056846;28;20206;-65
2023/10/05 10:57:24;;;;;;;5.07;1.80;;;18.00;99.90;;;;;;5062356;28;20202;-66
2023/10/05 11:03:18;;;;;;;3.17;1.37;;;17.60;99.90;;;;;;5048779;28;20285;-65
2023/10/05 11:06:09;;;;;;;3.07;1.53;;;17.50;99.90;;;;;;5061322;28;20239;-65
2023/10/05 11:08:59;;;;;;;5.83;1.90;;;17.50;99.90;;;;;;5063701;28;20266;-65
2023/10/05 11:11:46;;;;;;;6.17;2.00;;;18.00;99.90;;;;;;5068532;28;20242;-65
2023/10/05 11:14:33;;;;;;;3.93;1.40;;;18.00;99.90;;;;;;5063622;28;20808;-65
2023/10/05 11:17:28;;;;;;;4.77;1.63;;;18.30;99.90;;;;;;5064451;28;20693;-66
2023/10/05 11:20:24;;;;;;;6.03;1.73;;;19.00;81.30;;;;;;5065599;28;20219;-66
2023/10/05 11:23:11;;;;;;;2.20;1.23;;;18.20;95.70;;;;;;5061943;28;20204;-65
2023/10/05 11:26:17;;;;;;;4.60;1.90;;;18.20;94.70;;;;;;5056649;28;20203;-65
2023/10/05 11:29:07;;;;;;;2.37;1.03;;;18.20;99.90;;;;;;5064707;28;20938;-65
2023/10/05 11:32:01;;;;;;;4.33;1.63;;;17.90;99.90;;;;;;5062968;28;20204;-65
2023/10/05 11:34:55;;;;;;;6.80;2.20;;;17.50;99.90;;;;;;5064564;28;20216;-65
2023/10/05 11:37:45;;;;;;;1.63;0.90;;;17.20;99.90;;;;;;5052697;28;20237;-65
2023/10/05 11:40:35;;;;;;;4.20;1.57;;;17.20;99.90;;;;;;5055367;28;20671;-65
2023/10/05 11:43:22;;;;;;;4.60;2.13;;;17.20;99.90;;;;;;5051373;28;20693;-65
2023/10/05 11:46:17;;;;;;;5.87;2.07;;;17.30;99.90;;;;;;5055917;28;20802;-64
2023/10/05 11:49:05;;;;;;;3.77;1.83;;;17.20;99.90;;;;;;5054908;28;20323;-65
2023/10/05 11:51:56;;;;;;;5.83;2.10;;;16.50;99.90;;;;;;5058043;28;20232;-65
2023/10/05 11:54:43;;;;;;;9.53;2.00;;;16.80;99.90;;;;;;5056365;28;20216;-65
2023/10/05 11:57:32;;;;;;;4.37;1.83;;;16.90;99.90;;;;;;5058471;28;20322;-65
2023/10/05 12:00:19;;;;;;;3.70;1.70;;;17.10;99.90;;;;;;5056184;28;20228;-66
2023/10/05 12:03:09;;;;;;;9.47;2.23;;;17.40;99.90;;;;;;5055983;28;20199;-65
2023/10/05 12:06:00;;;;;;;5.50;1.40;;;17.70;99.90;;;;;;5058292;28;20266;-65
2023/10/05 12:08:49;;;;;;;4.63;1.90;;;17.60;99.90;;;;;;5054953;28;20220;-66
2023/10/05 12:11:36;;;;;;;5.20;1.63;;;17.20;99.90;;;;;;5056228;28;20196;-65
2023/10/05 12:14:24;;;;;;;5.10;1.77;;;17.70;99.90;;;;;;5057854;28;20193;-66
2023/10/05 12:17:12;;;;;;;5.83;2.40;;;17.90;99.90;;;;;;5056590;28;20277;-66
2023/10/05 12:19:59;;;;;;;7.97;2.00;;;18.00;99.90;;;;;;5054789;28;20547;-66
2023/10/05 12:22:49;;;;;;;1.93;1.03;;;17.40;99.90;;;;;;5052829;28;20688;-66
2023/10/05 12:25:38;;;;;;;10.13;2.13;;;17.70;99.90;;;;;;5057117;28;20207;-65
2023/10/05 12:28:25;;;;;;;5.00;1.63;;;17.70;99.90;;;;;;5066796;28;20224;-65
2023/10/05 12:31:13;;;;;;;7.67;1.83;;;17.50;99.90;;;;;;5058891;28;20198;-66
2023/10/05 12:34:00;;;;;;;5.27;1.93;;;17.30;99.90;;;;;;5062836;28;20203;-65
2023/10/05 12:36:49;;;;;;;7.40;1.97;;;17.00;99.90;;;;;;5066458;28;20287;-65
2023/10/05 12:39:36;;;;;;;4.33;1.97;;;17.10;99.90;;;;;;5063184;28;20230;-66
2023/10/05 12:42:25;;;;;;;9.23;2.00;;;16.90;99.90;;;;;;5065141;28;20209;-65
2023/10/05 12:45:13;;;;;;;7.70;2.20;;;16.80;99.90;;;;;;5066712;28;20201;-66
2023/10/05 12:48:00;;;;;;;6.93;2.10;;;16.90;99.90;;;;;;5064148;28;20200;-65
2023/10/05 12:50:48;;;;;;;4.30;1.80;;;17.00;99.90;;;;;;5064178;28;20202;-66
2023/10/05 12:53:36;;;;;;;5.10;1.63;;;17.00;99.90;;;;;;5061949;28;20196;-66
2023/10/05 12:56:25;;;;;;;2.63;1.03;;;17.00;99.90;;;;;;5061865;28;20253;-65
2023/10/05 12:59:15;;;;;;;10.00;1.90;;;16.90;99.90;;;;;;5059408;28;20200;-65
2023/10/05 13:02:14;;;;;;;3.97;1.63;;;16.90;99.90;;;;;;5058518;28;20208;-66
2023/10/05 13:05:05;;;;;;;5.87;1.67;;;16.70;99.90;;;;;;5067050;28;20226;-65
2023/10/05 13:07:53;;;;;;;5.07;1.60;;;16.60;99.90;;;;;;5059009;28;20220;-65
2023/10/05 13:10:40;;;;;;;4.37;1.60;;;16.70;99.90;;;;;;5058606;28;20207;-65
2023/10/05 13:13:28;;;;;;;4.53;1.80;;;16.90;99.90;;;;;;5055287;28;20679;-66
2023/10/05 13:16:21;;;;;;;6.33;1.70;;;17.50;99.90;;;;;;5062563;28;20348;-66
2023/10/05 13:19:09;;;;;;;5.20;2.00;;;17.80;99.90;;;;;;5068043;28;20208;-65
2023/10/05 13:21:56;;;;;;;5.53;1.70;;;17.50;99.90;;;;;;5060548;28;20820;-65
2023/10/05 13:24:44;;;;;;;5.00;1.50;;;17.60;98.40;;;;;;5065883;28;20692;-66
2023/10/05 13:27:35;;;;;;;5.30;1.90;;;17.00;99.90;;;;;;5060363;28;20238;-65
2023/10/05 13:30:27;;;;;;;7.53;2.00;;;17.00;99.90;;;;;;5059709;28;20197;-65
2023/10/05 13:33:21;;;;;;;5.97;1.80;;;17.00;99.90;;;;;;5063227;28;20567;-66
2023/10/05 13:36:12;;;;;;;3.80;1.77;;;16.60;99.90;;;;;;5059215;28;20239;-65
2023/10/05 13:38:59;;;;;;;10.50;2.13;;;16.60;99.90;;;;;;5064993;28;20238;-65
2023/10/05 13:41:47;;;;;;;3.20;1.27;;;16.90;99.90;;;;;;5063722;28;20696;-65
2023/10/05 13:44:35;;;;;;;12.10;2.63;;;17.40;97.50;;;;;;5062688;28;20622;-65
2023/10/05 13:47:24;;;;;;;5.73;2.30;;;17.20;96.60;;;;;;5067622;28;20219;-66
2023/10/05 13:50:12;;;;;;;5.90;2.20;;;17.20;96.10;;;;;;5061574;28;20281;-65
2023/10/05 13:53:00;;;;;;;10.83;2.47;;;17.30;98.20;;;;;;5063072;28;20217;-66
2023/10/05 13:55:51;;;;;;;5.80;2.30;;;17.30;97.30;;;;;;5065353;28;20225;-65
2023/10/05 13:58:40;;;;;;;9.00;2.90;;;17.00;96.80;;;;;;5064100;28;20197;-65
2023/10/05 14:01:33;;;;;;;8.73;2.47;;;16.80;98.00;;;;;;5058251;28;20335;-65
2023/10/05 14:04:23;;;;;;;14.57;3.20;;;16.70;95.90;;;;;;5066595;28;20201;-65
2023/10/05 14:07:13;;;;;;;8.33;2.93;;;16.50;98.30;;;;;;5059966;28;20311;-65
2023/10/05 14:10:00;;;;;;;7.10;2.57;;;16.60;98.30;;;;;;5064870;28;20231;-65
2023/10/05 14:12:47;;;;;;;6.47;2.57;;;16.60;93.30;;;;;;5063777;28;20286;-65
2023/10/05 14:15:35;;;;;;;8.30;2.67;;;16.70;95.50;;;;;;5063805;28;20259;-65
2023/10/05 14:18:23;;;;;;;6.93;2.50;;;16.60;92.80;;;;;;5066348;28;20200;-65
2023/10/05 14:21:10;;;;;;;7.27;3.00;;;16.50;95.60;;;;;;5065392;28;20695;-65
2023/10/05 14:23:59;;;;;;;3.97;1.63;;;16.40;99.90;;;;;;5064396;28;20296;-65
2023/10/05 14:26:48;;;;;;;7.53;2.87;;;16.30;96.40;;;;;;5058342;28;20253;-65
2023/10/05 14:29:36;;;;;;;8.20;3.27;;;16.20;99.90;;;;;;5064906;28;20215;-65
2023/10/05 14:32:23;;;;;;;8.00;2.73;;;16.30;98.30;;;;;;5060618;28;20208;-65
2023/10/05 14:35:15;;;;;;;8.23;3.30;;;16.00;99.70;;;;;;5062909;28;20209;-66
2023/10/05 14:38:05;;;;;;;6.33;2.53;;;16.20;99.90;;;;;;5069050;28;20202;-65
2023/10/05 14:40:56;;;;;;;8.30;2.90;;;16.30;99.90;;;;;;5069585;28;20612;-65
2023/10/05 14:43:44;;;;;;;6.27;2.47;;;16.30;99.90;;;;;;5060647;28;20687;-65
2023/10/05 14:46:33;;;;;;;9.87;2.90;;;16.40;99.90;;;;;;5064374;28;20232;-66
2023/10/05 14:49:21;;;;;;;7.73;2.90;;;16.40;99.90;;;;;;5065119;28;20209;-66